Time;durP1;ratioP1;P1;durP2;ratioP2;P2;SDS_P1;SDS_P2;PMS_P1;PMS_P2;Temp;Humidity;BMP_temperature;BMP_pressure;BME280_temperature;BME280_humidity;BME280_pressure;Samples;Min_cycle;Max_cycle;Signal;HPM_P1;HPM_P2
2022/01/10 00:02:09;;;;;;;7.30;6.03;;;;;;;;;;5073079;28;20576;-76
2022/01/10 00:04:36;;;;;;;7.60;5.70;;;;;;;;;;5071929;28;20241;-77
2022/01/10 00:07:04;;;;;;;9.27;6.03;;;;;;;;;;5073154;28;20213;-76
2022/01/10 00:09:31;;;;;;;8.17;5.70;;;;;;;;;;5072357;28;20243;-76
2022/01/10 00:11:59;;;;;;;11.57;6.47;;;;;;;;;;5072994;28;20209;-76
2022/01/10 00:14:26;;;;;;;8.73;6.00;;;;;;;;;;5069718;28;20243;-76
2022/01/10 00:16:53;;;;;;;10.03;6.07;;;;;;;;;;5052230;28;20213;-76
2022/01/10 00:19:21;;;;;;;11.80;6.17;;;;;;;;;;5052156;28;20238;-77
2022/01/10 00:21:48;;;;;;;13.33;6.23;;;;;;;;;;5052513;28;20650;-76
2022/01/10 00:24:15;;;;;;;8.63;6.07;;;;;;;;;;5051792;28;20241;-76
2022/01/10 00:26:42;;;;;;;10.37;6.43;;;;;;;;;;5052918;28;20216;-76
2022/01/10 00:29:10;;;;;;;10.03;5.87;;;;;;;;;;5051496;28;20248;-76
2022/01/10 00:31:37;;;;;;;7.37;5.83;;;;;;;;;;5052254;28;20205;-76
2022/01/10 00:34:04;;;;;;;19.30;7.60;;;;;;;;;;5051620;28;20233;-77
2022/01/10 00:36:32;;;;;;;10.20;7.70;;;;;;;;;;5052357;28;20217;-76
2022/01/10 00:38:59;;;;;;;14.80;7.23;;;;;;;;;;5051800;28;20241;-76
2022/01/10 00:41:26;;;;;;;9.73;6.50;;;;;;;;;;5052194;28;20226;-76
2022/01/10 00:43:53;;;;;;;8.87;6.20;;;;;;;;;;5050970;28;20241;-76
2022/01/10 00:46:22;;;;;;;12.30;6.43;;;;;;;;;;5051739;28;20670;-76
2022/01/10 00:48:49;;;;;;;9.23;6.93;;;;;;;;;;5051827;28;20729;-76
2022/01/10 00:51:16;;;;;;;11.90;7.40;;;;;;;;;;5053211;28;20205;-76
2022/01/10 00:53:44;;;;;;;10.13;6.67;;;;;;;;;;5054966;28;20233;-75
2022/01/10 00:56:11;;;;;;;7.53;5.83;;;;;;;;;;5055413;28;20209;-75
2022/01/10 00:58:38;;;;;;;10.40;6.43;;;;;;;;;;5055123;28;20243;-76
2022/01/10 01:01:06;;;;;;;10.63;6.43;;;;;;;;;;5074177;28;20568;-76
2022/01/10 01:03:34;;;;;;;16.00;6.87;;;;;;;;;;5074988;28;20240;-76
2022/01/10 01:06:01;;;;;;;9.87;7.47;;;;;;;;;;5075349;28;20220;-76
2022/01/10 01:08:31;;;;;;;13.70;6.90;;;;;;;;;;5075473;28;20233;-76
2022/01/10 01:11:24;;;;;;;15.07;6.63;;;;;;;;;;5075161;28;20299;-76
2022/01/10 01:13:54;;;;;;;13.90;7.00;;;;;;;;;;5074665;28;20297;-76
2022/01/10 01:16:42;;;;;;;10.30;7.33;;;;;;;;;;5054988;28;20288;-77
2022/01/10 01:20:02;;;;;;;13.13;7.30;;;;;;;;;;5055087;28;20606;-77
2022/01/10 01:25:02;;;;;;;9.97;6.60;;;;;;;;;;5054230;28;20232;-76
2022/01/10 01:27:29;;;;;;;14.13;6.53;;;;;;;;;;5054467;28;20679;-76
2022/01/10 01:29:56;;;;;;;11.77;7.17;;;;;;;;;;5055030;28;20209;-76
2022/01/10 01:32:23;;;;;;;10.57;5.97;;;;;;;;;;5054383;28;20213;-77
2022/01/10 01:34:55;;;;;;;8.70;5.90;;;;;;;;;;5054180;28;20252;-77
2022/01/10 01:37:23;;;;;;;9.10;6.27;;;;;;;;;;5034316;28;20211;-77
2022/01/10 01:39:50;;;;;;;18.80;7.07;;;;;;;;;;5034947;28;20237;-77
2022/01/10 01:42:33;;;;;;;9.73;6.57;;;;;;;;;;5043924;28;20237;-78
2022/01/10 01:45:00;;;;;;;10.00;6.40;;;;;;;;;;5053907;28;20644;-76
2022/01/10 01:47:27;;;;;;;10.43;5.70;;;;;;;;;;5053960;28;20210;-75
2022/01/10 01:49:58;;;;;;;16.93;6.67;;;;;;;;;;5054928;28;20646;-77
2022/01/10 01:52:25;;;;;;;10.20;6.27;;;;;;;;;;5054130;28;20213;-77
2022/01/10 01:54:52;;;;;;;10.60;6.00;;;;;;;;;;5053973;28;20253;-76
2022/01/10 01:57:20;;;;;;;9.97;6.37;;;;;;;;;;5053817;28;20210;-76
2022/01/10 01:59:47;;;;;;;7.90;6.07;;;;;;;;;;5052633;28;20202;-76
2022/01/10 02:02:14;;;;;;;10.20;6.73;;;;;;;;;;5059415;28;20221;-77
2022/01/10 02:04:41;;;;;;;8.47;5.97;;;;;;;;;;5055090;28;20225;-76
2022/01/10 02:07:10;;;;;;;11.37;6.50;;;;;;;;;;5059513;28;20233;-76
2022/01/10 02:09:37;;;;;;;10.23;6.20;;;;;;;;;;5073132;28;20233;-76
2022/01/10 02:12:04;;;;;;;10.63;5.73;;;;;;;;;;5060367;28;20198;-76
2022/01/10 02:14:31;;;;;;;12.50;6.27;;;;;;;;;;5052991;28;20236;-76
2022/01/10 02:16:58;;;;;;;8.13;5.77;;;;;;;;;;5053840;28;20206;-76
2022/01/10 02:19:26;;;;;;;7.23;5.60;;;;;;;;;;5053480;28;20241;-76
2022/01/10 02:21:55;;;;;;;11.53;5.90;;;;;;;;;;5054007;28;20229;-76
2022/01/10 02:24:23;;;;;;;11.00;6.33;;;;;;;;;;5060754;28;20226;-76
2022/01/10 02:26:50;;;;;;;9.83;6.10;;;;;;;;;;5053852;28;20206;-77
2022/01/10 02:29:18;;;;;;;5.90;5.30;;;;;;;;;;5053518;28;20772;-76
2022/01/10 02:31:45;;;;;;;7.67;5.07;;;;;;;;;;5053858;28;20201;-76
2022/01/10 02:34:16;;;;;;;6.30;5.07;;;;;;;;;;5052893;28;20240;-77
2022/01/10 02:36:43;;;;;;;16.87;5.47;;;;;;;;;;5053702;28;20681;-76
2022/01/10 02:39:12;;;;;;;7.50;5.13;;;;;;;;;;5052894;28;20238;-76
2022/01/10 02:41:40;;;;;;;10.40;5.53;;;;;;;;;;5053315;28;20225;-77
2022/01/10 02:44:09;;;;;;;7.37;5.13;;;;;;;;;;5052237;28;20233;-76
2022/01/10 02:46:37;;;;;;;6.00;5.10;;;;;;;;;;5053466;28;20213;-77
2022/01/10 02:49:08;;;;;;;8.50;5.63;;;;;;;;;;5053100;28;20241;-76
2022/01/10 02:51:35;;;;;;;7.10;5.40;;;;;;;;;;5053146;28;20213;-76
2022/01/10 02:54:02;;;;;;;6.57;5.07;;;;;;;;;;5052229;28;20246;-76
2022/01/10 02:56:30;;;;;;;7.23;5.10;;;;;;;;;;5052834;28;20205;-76
2022/01/10 02:58:58;;;;;;;7.43;4.60;;;;;;;;;;5053947;28;20248;-76
2022/01/10 03:01:25;;;;;;;9.83;4.90;;;;;;;;;;5073389;28;20233;-75
2022/01/10 03:03:52;;;;;;;10.87;5.03;;;;;;;;;;5071184;28;20241;-76
2022/01/10 03:06:19;;;;;;;5.83;4.83;;;;;;;;;;5053081;28;20730;-76
2022/01/10 03:08:46;;;;;;;9.97;5.20;;;;;;;;;;5052440;28;20653;-76
2022/01/10 03:11:13;;;;;;;7.70;5.10;;;;;;;;;;5053218;28;20198;-76
2022/01/10 03:13:42;;;;;;;8.93;5.27;;;;;;;;;;5051456;28;20248;-76
2022/01/10 03:16:09;;;;;;;5.77;4.90;;;;;;;;;;5052789;28;20549;-75
2022/01/10 03:18:36;;;;;;;13.03;5.03;;;;;;;;;;5052199;28;20236;-75
2022/01/10 03:21:04;;;;;;;7.27;5.00;;;;;;;;;;5052493;28;20228;-76
2022/01/10 03:23:31;;;;;;;8.23;5.90;;;;;;;;;;5051829;28;20246;-76
2022/01/10 03:25:58;;;;;;;11.97;5.57;;;;;;;;;;5051680;28;20209;-75
2022/01/10 03:28:25;;;;;;;6.50;4.97;;;;;;;;;;5051767;28;20302;-76
2022/01/10 03:30:54;;;;;;;9.33;5.43;;;;;;;;;;5052305;28;20201;-76
2022/01/10 03:33:21;;;;;;;7.13;5.40;;;;;;;;;;5052050;28;20233;-76
2022/01/10 03:35:49;;;;;;;8.47;5.50;;;;;;;;;;5052728;28;20232;-76
2022/01/10 03:38:16;;;;;;;7.60;5.87;;;;;;;;;;5052570;28;20312;-76
2022/01/10 03:40:43;;;;;;;8.43;5.90;;;;;;;;;;5053163;28;20205;-76
2022/01/10 03:43:10;;;;;;;8.23;5.70;;;;;;;;;;5052146;28;20248;-76
2022/01/10 03:45:37;;;;;;;14.87;6.17;;;;;;;;;;5052464;28;20231;-76
2022/01/10 03:48:06;;;;;;;11.00;6.20;;;;;;;;;;5052492;28;20237;-76
2022/01/10 03:50:33;;;;;;;12.43;6.73;;;;;;;;;;5052441;28;20605;-76
2022/01/10 03:53:00;;;;;;;9.23;5.97;;;;;;;;;;5052031;28;20233;-76
2022/01/10 03:55:27;;;;;;;9.30;6.30;;;;;;;;;;5052095;28;20827;-76
2022/01/10 03:57:54;;;;;;;11.03;6.30;;;;;;;;;;5051539;28;20248;-76
2022/01/10 04:00:21;;;;;;;9.33;5.57;;;;;;;;;;5065481;28;20202;-76
2022/01/10 04:02:54;;;;;;;9.93;6.53;;;;;;;;;;5059344;28;20238;-76
2022/01/10 04:05:22;;;;;;;10.13;6.87;;;;;;;;;;5052226;28;20255;-76
2022/01/10 04:07:50;;;;;;;9.43;6.30;;;;;;;;;;5051388;28;20233;-76
2022/01/10 04:10:17;;;;;;;12.37;7.17;;;;;;;;;;5051947;28;20251;-76
2022/01/10 04:12:44;;;;;;;8.50;6.40;;;;;;;;;;5051361;28;20251;-76
2022/01/10 04:15:11;;;;;;;9.87;6.77;;;;;;;;;;5052736;28;20233;-76
2022/01/10 04:17:38;;;;;;;10.60;6.57;;;;;;;;;;5051892;28;20243;-76
2022/01/10 04:20:06;;;;;;;9.10;6.07;;;;;;;;;;5052390;28;20206;-77
2022/01/10 04:22:34;;;;;;;7.60;6.47;;;;;;;;;;5051432;28;20703;-76
2022/01/10 04:25:02;;;;;;;14.97;7.20;;;;;;;;;;5052422;28;20228;-76
2022/01/10 04:27:31;;;;;;;12.63;6.93;;;;;;;;;;5056199;28;20548;-76
2022/01/10 04:29:59;;;;;;;10.87;7.13;;;;;;;;;;5055430;28;20212;-76
2022/01/10 04:32:28;;;;;;;8.30;6.87;;;;;;;;;;5054842;28;20213;-76
2022/01/10 04:34:55;;;;;;;9.50;6.43;;;;;;;;;;5055590;28;20240;-76
2022/01/10 04:37:22;;;;;;;10.90;6.17;;;;;;;;;;5054527;28;20205;-76
2022/01/10 04:39:50;;;;;;;11.93;7.53;;;;;;;;;;5055340;28;20202;-76
2022/01/10 04:42:17;;;;;;;9.60;6.10;;;;;;;;;;5054906;28;20233;-76
2022/01/10 04:44:44;;;;;;;10.97;6.53;;;;;;;;;;5055148;28;20225;-76
2022/01/10 04:47:12;;;;;;;10.27;6.90;;;;;;;;;;5055001;28;20208;-76
2022/01/10 04:50:02;;;;;;;11.47;7.00;;;;;;;;;;5054560;28;20248;-76
2022/01/10 04:52:27;;;;;;;11.60;6.50;;;;;;;;;;5054380;28;20208;-76
2022/01/10 04:54:56;;;;;;;11.83;7.03;;;;;;;;;;5054760;28;20241;-76
2022/01/10 04:57:23;;;;;;;11.17;6.30;;;;;;;;;;5054307;28;20201;-76
2022/01/10 04:59:50;;;;;;;9.23;6.70;;;;;;;;;;5063941;28;20238;-75
2022/01/10 05:02:17;;;;;;;8.63;6.50;;;;;;;;;;5074611;28;20240;-76
2022/01/10 05:04:44;;;;;;;8.37;6.37;;;;;;;;;;5075060;28;20249;-75
2022/01/10 05:07:11;;;;;;;7.50;5.93;;;;;;;;;;5065972;28;20220;-75
2022/01/10 05:09:38;;;;;;;6.63;5.60;;;;;;;;;;5054505;28;20626;-77
2022/01/10 05:12:08;;;;;;;9.17;5.67;;;;;;;;;;5055189;28;20212;-76
2022/01/10 05:14:35;;;;;;;8.13;5.50;;;;;;;;;;5054932;28;20236;-77
2022/01/10 05:17:02;;;;;;;9.67;5.10;;;;;;;;;;5055082;28;20197;-76
2022/01/10 05:19:29;;;;;;;8.20;5.63;;;;;;;;;;5055357;28;20267;-76
2022/01/10 05:21:56;;;;;;;6.87;5.63;;;;;;;;;;5055464;28;20237;-76
2022/01/10 05:24:23;;;;;;;11.20;5.70;;;;;;;;;;5054910;28;20350;-76
2022/01/10 05:26:50;;;;;;;7.83;5.70;;;;;;;;;;5054913;28;20201;-76
2022/01/10 05:29:19;;;;;;;8.83;4.43;;;;;;;;;;5055514;28;20323;-76
2022/01/10 05:31:46;;;;;;;11.20;5.30;;;;;;;;;;5055457;28;20292;-76
2022/01/10 05:34:13;;;;;;;15.30;6.37;;;;;;;;;;5055378;28;20640;-76
2022/01/10 05:36:40;;;;;;;9.43;5.97;;;;;;;;;;5057188;28;20578;-77
2022/01/10 05:39:08;;;;;;;7.83;4.57;;;;;;;;;;5057657;28;20243;-77
2022/01/10 05:41:35;;;;;;;8.10;5.47;;;;;;;;;;5054413;28;20264;-76
2022/01/10 05:44:02;;;;;;;11.50;5.70;;;;;;;;;;5054159;28;20245;-76
2022/01/10 05:46:31;;;;;;;7.17;5.03;;;;;;;;;;5054153;28;20221;-77
2022/01/10 05:49:02;;;;;;;5.30;4.80;;;;;;;;;;5052706;28;20716;-77
2022/01/10 05:51:32;;;;;;;9.47;5.57;;;;;;;;;;5053681;28;20665;-76
2022/01/10 05:54:00;;;;;;;12.90;5.93;;;;;;;;;;5052995;28;20275;-77
2022/01/10 05:56:27;;;;;;;8.27;4.97;;;;;;;;;;5053101;28;20212;-77
2022/01/10 05:58:54;;;;;;;8.13;4.93;;;;;;;;;;5053211;28;20237;-77
2022/01/10 06:01:21;;;;;;;7.27;5.73;;;;;;;;;;5072553;28;20679;-77
2022/01/10 06:03:49;;;;;;;12.27;5.70;;;;;;;;;;5052344;28;20267;-76
2022/01/10 06:06:16;;;;;;;7.60;5.80;;;;;;;;;;5052958;28;20251;-76
2022/01/10 06:08:44;;;;;;;12.83;6.17;;;;;;;;;;5052733;28;20278;-77
2022/01/10 06:11:11;;;;;;;10.73;6.60;;;;;;;;;;5053339;28;20618;-78
2022/01/10 06:13:38;;;;;;;11.67;8.80;;;;;;;;;;5053797;28;20231;-78
2022/01/10 06:16:06;;;;;;;10.20;7.23;;;;;;;;;;5051349;28;20208;-78
2022/01/10 06:18:33;;;;;;;14.90;7.27;;;;;;;;;;5050753;28;20247;-78
2022/01/10 06:21:01;;;;;;;9.73;6.73;;;;;;;;;;5053518;28;20216;-79
2022/01/10 06:23:29;;;;;;;9.73;7.90;;;;;;;;;;5054720;28;20247;-78
2022/01/10 06:25:56;;;;;;;9.27;7.10;;;;;;;;;;5059047;28;20208;-78
2022/01/10 06:28:23;;;;;;;11.83;7.00;;;;;;;;;;5059408;28;20237;-79
2022/01/10 06:30:50;;;;;;;9.10;7.30;;;;;;;;;;5060308;28;20208;-79
2022/01/10 06:33:17;;;;;;;13.50;8.13;;;;;;;;;;5059264;28;20270;-79
2022/01/10 06:35:44;;;;;;;13.83;8.50;;;;;;;;;;5057094;28;20233;-79
2022/01/10 06:38:13;;;;;;;12.43;8.57;;;;;;;;;;5056791;28;20232;-79
2022/01/10 06:40:40;;;;;;;10.67;8.10;;;;;;;;;;5055828;28;20212;-79
2022/01/10 06:43:07;;;;;;;16.63;8.93;;;;;;;;;;5056039;28;20254;-78
2022/01/10 06:45:34;;;;;;;15.23;8.50;;;;;;;;;;5073996;28;20225;-78
2022/01/10 06:48:02;;;;;;;13.73;8.50;;;;;;;;;;5051289;28;20228;-79
2022/01/10 06:50:29;;;;;;;11.07;7.90;;;;;;;;;;5035459;28;20208;-79
2022/01/10 06:52:57;;;;;;;13.13;8.07;;;;;;;;;;5034467;28;20241;-79
2022/01/10 06:55:25;;;;;;;9.10;7.50;;;;;;;;;;5035091;28;20235;-79
2022/01/10 06:57:53;;;;;;;12.63;7.63;;;;;;;;;;5053929;28;20716;-79
2022/01/10 07:00:21;;;;;;;10.63;7.47;;;;;;;;;;5066911;28;20205;-79
2022/01/10 07:02:48;;;;;;;13.37;7.70;;;;;;;;;;5074991;28;20234;-79
2022/01/10 07:05:15;;;;;;;12.63;7.20;;;;;;;;;;5060118;28;20234;-79
2022/01/10 07:07:42;;;;;;;13.07;7.83;;;;;;;;;;5055069;28;20240;-79
2022/01/10 07:10:09;;;;;;;11.33;8.00;;;;;;;;;;5056364;28;20262;-79
2022/01/10 07:12:38;;;;;;;13.60;6.97;;;;;;;;;;5055897;28;20207;-79
2022/01/10 07:15:05;;;;;;;11.07;8.27;;;;;;;;;;5053019;28;20221;-79
2022/01/10 07:17:33;;;;;;;9.90;7.50;;;;;;;;;;5052261;28;20203;-79
2022/01/10 07:20:00;;;;;;;14.93;8.47;;;;;;;;;;5056382;28;20215;-79
2022/01/10 07:22:28;;;;;;;8.80;7.27;;;;;;;;;;5056435;28;20234;-79
2022/01/10 07:24:55;;;;;;;14.50;8.87;;;;;;;;;;5056255;28;20275;-80
2022/01/10 07:27:22;;;;;;;12.47;8.43;;;;;;;;;;5054577;28;20200;-79
2022/01/10 07:29:50;;;;;;;15.17;8.40;;;;;;;;;;5055934;28;20202;-79
2022/01/10 07:32:18;;;;;;;12.83;8.07;;;;;;;;;;5055240;28;20668;-79
2022/01/10 07:34:45;;;;;;;9.17;7.70;;;;;;;;;;5037494;28;20255;-79
2022/01/10 07:37:12;;;;;;;12.37;8.57;;;;;;;;;;5039239;28;20207;-79
2022/01/10 07:39:40;;;;;;;10.90;8.07;;;;;;;;;;5041481;28;20238;-79
2022/01/10 07:42:07;;;;;;;10.73;7.47;;;;;;;;;;5039827;28;20293;-81
2022/01/10 07:44:34;;;;;;;10.33;7.43;;;;;;;;;;5039189;28;20613;-80
2022/01/10 07:47:02;;;;;;;10.93;7.43;;;;;;;;;;5045535;28;20212;-79
2022/01/10 07:49:30;;;;;;;12.93;7.07;;;;;;;;;;5046407;28;20230;-80
2022/01/10 07:51:57;;;;;;;10.63;6.93;;;;;;;;;;5058210;28;20215;-80
2022/01/10 07:54:25;;;;;;;11.63;6.23;;;;;;;;;;5058458;28;20247;-80
2022/01/10 07:56:52;;;;;;;9.80;5.80;;;;;;;;;;5057943;28;20237;-80
2022/01/10 07:59:19;;;;;;;10.73;6.80;;;;;;;;;;5060816;28;20602;-80
2022/01/10 08:01:47;;;;;;;10.27;5.73;;;;;;;;;;5080169;28;20205;-80
2022/01/10 08:04:16;;;;;;;17.07;7.57;;;;;;;;;;5064575;28;20285;-80
2022/01/10 08:06:43;;;;;;;9.63;6.47;;;;;;;;;;5049711;28;20212;-80
2022/01/10 08:09:10;;;;;;;9.80;7.03;;;;;;;;;;5050187;28;20239;-80
2022/01/10 08:11:37;;;;;;;12.47;7.43;;;;;;;;;;5050572;28;20211;-79
2022/01/10 08:14:05;;;;;;;13.63;7.00;;;;;;;;;;5039938;28;20243;-79
2022/01/10 08:16:32;;;;;;;8.03;6.70;;;;;;;;;;5047905;28;20214;-79
2022/01/10 08:18:59;;;;;;;9.20;8.30;;;;;;;;;;5056438;28;20233;-79
2022/01/10 08:21:28;;;;;;;9.30;7.57;;;;;;;;;;5058343;28;20230;-79
2022/01/10 08:23:55;;;;;;;15.67;8.87;;;;;;;;;;5075583;28;20238;-79
2022/01/10 08:26:22;;;;;;;18.00;8.70;;;;;;;;;;5064126;28;20203;-79
2022/01/10 08:28:49;;;;;;;12.90;7.90;;;;;;;;;;5061758;28;20230;-79
2022/01/10 08:31:16;;;;;;;15.60;7.30;;;;;;;;;;5061793;28;20203;-79
2022/01/10 08:33:45;;;;;;;20.73;10.20;;;;;;;;;;5054321;28;20723;-79
2022/01/10 08:36:12;;;;;;;10.93;8.63;;;;;;;;;;5074377;28;20500;-79
2022/01/10 08:38:41;;;;;;;19.70;9.67;;;;;;;;;;5063143;28;20235;-79
2022/01/10 08:41:08;;;;;;;25.47;10.43;;;;;;;;;;5050137;28;20216;-79
2022/01/10 08:43:35;;;;;;;19.73;10.53;;;;;;;;;;5060809;28;20250;-79
2022/01/10 08:46:02;;;;;;;19.53;10.17;;;;;;;;;;5061139;28;20253;-79
2022/01/10 08:48:29;;;;;;;18.83;11.50;;;;;;;;;;5052126;28;20240;-79
2022/01/10 08:50:57;;;;;;;17.90;11.43;;;;;;;;;;5061516;28;20212;-79
2022/01/10 08:53:24;;;;;;;22.40;11.40;;;;;;;;;;5049099;28;20241;-79
2022/01/10 08:55:52;;;;;;;23.27;10.10;;;;;;;;;;5064330;28;20233;-79
2022/01/10 08:58:21;;;;;;;16.47;9.27;;;;;;;;;;5061054;28;20232;-79
2022/01/10 09:00:48;;;;;;;18.07;10.13;;;;;;;;;;5061311;28;20219;-79
2022/01/10 09:03:15;;;;;;;24.13;11.00;;;;;;;;;;5059371;28;20613;-79
2022/01/10 09:05:42;;;;;;;21.33;10.83;;;;;;;;;;5060166;28;20236;-79
2022/01/10 09:08:10;;;;;;;23.83;10.70;;;;;;;;;;5057908;28;20774;-79
2022/01/10 09:10:37;;;;;;;25.97;10.93;;;;;;;;;;5058573;28;20246;-79
2022/01/10 09:13:06;;;;;;;23.67;10.43;;;;;;;;;;5055894;28;20238;-79
2022/01/10 09:15:34;;;;;;;20.20;9.83;;;;;;;;;;5042190;28;20656;-78
2022/01/10 09:18:01;;;;;;;20.03;9.83;;;;;;;;;;5055644;28;20232;-79
2022/01/10 09:20:29;;;;;;;29.93;12.27;;;;;;;;;;5060685;28;20448;-78
2022/01/10 09:22:56;;;;;;;69.80;28.13;;;;;;;;;;5055726;28;20309;-79
2022/01/10 09:25:23;;;;;;;26.13;14.27;;;;;;;;;;5055708;28;20280;-79
2022/01/10 09:27:50;;;;;;;29.23;14.37;;;;;;;;;;5055610;28;20235;-79
2022/01/10 09:30:18;;;;;;;77.77;36.60;;;;;;;;;;5057837;28;20209;-79
2022/01/10 09:32:46;;;;;;;41.43;20.87;;;;;;;;;;5055173;28;20236;-79
2022/01/10 09:35:13;;;;;;;36.83;16.30;;;;;;;;;;5056291;28;20264;-78
2022/01/10 09:37:40;;;;;;;36.03;20.43;;;;;;;;;;5054273;28;20233;-79
2022/01/10 09:40:08;;;;;;;25.70;12.07;;;;;;;;;;5055029;28;20205;-79
2022/01/10 09:42:35;;;;;;;29.93;13.63;;;;;;;;;;5041687;28;20218;-79
2022/01/10 09:45:06;;;;;;;31.60;13.67;;;;;;;;;;5048504;28;20226;-79
2022/01/10 09:47:35;;;;;;;30.67;16.30;;;;;;;;;;5055658;28;20209;-78
2022/01/10 09:50:02;;;;;;;19.90;13.43;;;;;;;;;;5049424;28;20225;-79
2022/01/10 09:52:30;;;;;;;25.10;12.97;;;;;;;;;;5041107;28;20213;-77
2022/01/10 09:54:57;;;;;;;28.90;13.47;;;;;;;;;;5049248;28;20632;-80
2022/01/10 09:57:24;;;;;;;37.07;14.77;;;;;;;;;;5057343;28;20206;-79
2022/01/10 09:59:51;;;;;;;31.37;14.60;;;;;;;;;;5052864;28;20203;-79
2022/01/10 10:02:18;;;;;;;34.57;17.63;;;;;;;;;;5040569;28;20202;-79
2022/01/10 10:04:47;;;;;;;33.67;17.27;;;;;;;;;;5039943;28;20243;-79
2022/01/10 10:07:15;;;;;;;37.00;17.57;;;;;;;;;;5052501;28;20791;-79
2022/01/10 10:09:43;;;;;;;28.40;14.50;;;;;;;;;;5040750;28;20219;-78
2022/01/10 10:12:10;;;;;;;26.13;11.90;;;;;;;;;;5050069;28;20240;-79
2022/01/10 10:14:40;;;;;;;31.33;14.10;;;;;;;;;;5050091;28;20234;-79
2022/01/10 10:17:13;;;;;;;25.30;12.37;;;;;;;;;;5055662;28;20202;-79
2022/01/10 10:19:42;;;;;;;23.13;13.03;;;;;;;;;;5060774;28;20228;-79
2022/01/10 10:22:10;;;;;;;23.13;12.93;;;;;;;;;;5061178;28;20236;-79
2022/01/10 10:24:37;;;;;;;27.83;13.30;;;;;;;;;;5059812;28;20230;-79
2022/01/10 10:27:05;;;;;;;28.63;13.50;;;;;;;;;;5062047;28;20232;-79
2022/01/10 10:29:32;;;;;;;32.87;13.87;;;;;;;;;;5061550;28;20624;-79
2022/01/10 10:32:02;;;;;;;28.97;13.90;;;;;;;;;;5058202;28;20198;-79
2022/01/10 10:34:31;;;;;;;28.17;14.57;;;;;;;;;;5041741;28;20604;-79
2022/01/10 10:37:02;;;;;;;31.60;14.87;;;;;;;;;;5042414;28;20750;-79
2022/01/10 10:39:31;;;;;;;35.57;16.03;;;;;;;;;;5041357;28;20622;-79
2022/01/10 10:42:00;;;;;;;38.00;15.67;;;;;;;;;;5040996;28;20206;-79
2022/01/10 10:44:27;;;;;;;33.07;15.17;;;;;;;;;;5040597;28;20242;-80
2022/01/10 10:46:54;;;;;;;35.23;16.73;;;;;;;;;;5041978;28;20206;-79
2022/01/10 10:49:25;;;;;;;34.90;15.73;;;;;;;;;;5067675;28;20229;-79
2022/01/10 10:51:53;;;;;;;34.37;16.67;;;;;;;;;;5061381;28;20206;-79
2022/01/10 10:54:20;;;;;;;37.50;18.77;;;;;;;;;;5058552;28;20252;-79
2022/01/10 10:56:48;;;;;;;32.97;16.77;;;;;;;;;;5050584;28;20210;-79
2022/01/10 10:59:15;;;;;;;37.40;18.07;;;;;;;;;;5065134;28;20336;-79
2022/01/10 11:01:43;;;;;;;34.13;16.43;;;;;;;;;;5048360;28;20664;-79
2022/01/10 11:04:12;;;;;;;38.10;18.63;;;;;;;;;;5058952;28;20541;-80
2022/01/10 11:06:39;;;;;;;45.53;21.37;;;;;;;;;;5061255;28;20213;-80
2022/01/10 11:09:09;;;;;;;41.07;19.90;;;;;;;;;;5060512;28;20251;-80
2022/01/10 11:11:36;;;;;;;40.80;19.43;;;;;;;;;;5059530;28;20214;-79
2022/01/10 11:14:05;;;;;;;46.17;19.50;;;;;;;;;;5058206;28;20293;-81
2022/01/10 11:16:32;;;;;;;32.33;18.73;;;;;;;;;;5061589;28;20209;-81
2022/01/10 11:18:59;;;;;;;48.70;19.10;;;;;;;;;;5057701;28;20621;-81
2022/01/10 11:21:26;;;;;;;39.20;18.87;;;;;;;;;;5060468;28;20198;-81
2022/01/10 11:23:53;;;;;;;42.03;22.33;;;;;;;;;;5059260;28;20905;-81
2022/01/10 11:26:20;;;;;;;45.63;20.03;;;;;;;;;;5059559;28;20205;-81
2022/01/10 11:28:49;;;;;;;41.77;19.17;;;;;;;;;;5057875;28;20238;-81
2022/01/10 11:31:21;;;;;;;48.43;20.03;;;;;;;;;;5058307;28;20219;-80
2022/01/10 11:33:48;;;;;;;34.33;19.93;;;;;;;;;;5055679;28;20235;-82
2022/01/10 11:36:15;;;;;;;36.93;18.43;;;;;;;;;;5056638;28;20221;-81
2022/01/10 11:38:44;;;;;;;36.30;19.07;;;;;;;;;;5057467;28;20238;-80
2022/01/10 11:41:12;;;;;;;44.77;19.70;;;;;;;;;;5059378;28;20227;-81
2022/01/10 11:43:44;;;;;;;36.57;17.77;;;;;;;;;;5056916;28;20311;-80
2022/01/10 11:46:29;;;;;;;36.30;18.87;;;;;;;;;;5057754;28;20202;-80
2022/01/10 11:48:59;;;;;;;36.33;18.43;;;;;;;;;;5058487;28;20266;-80
2022/01/10 11:51:27;;;;;;;30.23;18.37;;;;;;;;;;5043754;28;20212;-80
2022/01/10 11:53:55;;;;;;;31.40;16.70;;;;;;;;;;5046860;28;20625;-81
2022/01/10 11:56:23;;;;;;;35.90;19.53;;;;;;;;;;5058802;28;20204;-80
2022/01/10 11:59:09;;;;;;;33.30;18.30;;;;;;;;;;5057643;28;20247;-81
2022/01/10 12:01:37;;;;;;;28.43;16.60;;;;;;;;;;5038862;28;20236;-81
2022/01/10 12:04:06;;;;;;;29.03;17.27;;;;;;;;;;5049314;28;20226;-80
2022/01/10 12:06:33;;;;;;;24.43;15.13;;;;;;;;;;5039317;28;20267;-80
2022/01/10 12:09:00;;;;;;;28.40;14.77;;;;;;;;;;5049688;28;20688;-81
2022/01/10 12:11:28;;;;;;;32.20;15.17;;;;;;;;;;5041338;28;20206;-80
2022/01/10 12:13:58;;;;;;;23.93;12.57;;;;;;;;;;5038170;28;20244;-80
2022/01/10 12:16:26;;;;;;;20.43;12.37;;;;;;;;;;5053376;28;20229;-80
2022/01/10 12:18:53;;;;;;;18.70;10.77;;;;;;;;;;5037776;28;20244;-81
2022/01/10 12:21:22;;;;;;;21.33;10.33;;;;;;;;;;5038825;28;20248;-81
2022/01/10 12:23:49;;;;;;;21.87;10.60;;;;;;;;;;5053653;28;20228;-81
2022/01/10 12:26:16;;;;;;;19.63;11.43;;;;;;;;;;5050300;28;20204;-80
2022/01/10 12:28:44;;;;;;;17.87;10.90;;;;;;;;;;5056960;28;20242;-81
2022/01/10 12:31:11;;;;;;;16.90;10.50;;;;;;;;;;5056433;28;20736;-80
2022/01/10 12:33:38;;;;;;;17.57;10.20;;;;;;;;;;5055085;28;20226;-81
2022/01/10 12:36:06;;;;;;;20.93;11.17;;;;;;;;;;5058391;28;20209;-81
2022/01/10 12:38:34;;;;;;;20.87;10.50;;;;;;;;;;5058766;28;20277;-81
2022/01/10 12:41:01;;;;;;;17.83;10.73;;;;;;;;;;5050234;28;20206;-81
2022/01/10 12:43:28;;;;;;;16.23;10.57;;;;;;;;;;5056984;28;20245;-81
2022/01/10 12:45:55;;;;;;;17.60;11.00;;;;;;;;;;5054844;28;20237;-81
2022/01/10 12:48:24;;;;;;;17.53;11.30;;;;;;;;;;5059627;28;20251;-81
2022/01/10 12:50:54;;;;;;;19.83;10.57;;;;;;;;;;5062735;28;20267;-81
2022/01/10 12:53:21;;;;;;;19.97;10.60;;;;;;;;;;5053821;28;20250;-81
2022/01/10 12:55:50;;;;;;;21.27;11.07;;;;;;;;;;5051196;28;20228;-81
2022/01/10 12:58:17;;;;;;;21.13;9.97;;;;;;;;;;5060268;28;20268;-81
2022/01/10 13:00:45;;;;;;;16.97;9.47;;;;;;;;;;5075277;28;20202;-81
2022/01/10 13:03:12;;;;;;;16.97;10.60;;;;;;;;;;5055253;28;20260;-81
2022/01/10 13:05:39;;;;;;;22.63;8.73;;;;;;;;;;5040337;28;20384;-81
2022/01/10 13:08:07;;;;;;;17.50;9.33;;;;;;;;;;5045864;28;20233;-81
2022/01/10 13:10:37;;;;;;;18.17;9.43;;;;;;;;;;5057227;28;20202;-81
2022/01/10 13:13:05;;;;;;;14.63;8.70;;;;;;;;;;5058758;28;20230;-81
2022/01/10 13:15:35;;;;;;;21.00;9.33;;;;;;;;;;5058743;28;20222;-81
2022/01/10 13:18:03;;;;;;;13.67;8.73;;;;;;;;;;5059844;28;20234;-82
2022/01/10 13:20:32;;;;;;;18.83;8.90;;;;;;;;;;5059432;28;20296;-82
2022/01/10 13:23:01;;;;;;;26.17;9.80;;;;;;;;;;5053432;28;20792;-82
2022/01/10 13:25:31;;;;;;;18.17;8.90;;;;;;;;;;5054631;28;20237;-82
2022/01/10 13:28:04;;;;;;;18.57;8.43;;;;;;;;;;5054587;28;20244;-82
2022/01/10 13:30:32;;;;;;;14.30;8.37;;;;;;;;;;5055295;28;20190;-82
2022/01/10 13:33:01;;;;;;;18.53;7.90;;;;;;;;;;5053568;28;20229;-82
2022/01/10 13:35:31;;;;;;;18.47;7.77;;;;;;;;;;5053360;28;20229;-82
2022/01/10 13:37:59;;;;;;;13.93;8.33;;;;;;;;;;5057241;28;20324;-81
2022/01/10 13:40:27;;;;;;;13.37;8.07;;;;;;;;;;5042677;28;20588;-81
2022/01/10 13:43:03;;;;;;;12.83;8.83;;;;;;;;;;5053048;28;20241;-81
2022/01/10 13:45:41;;;;;;;18.57;7.80;;;;;;;;;;5059773;28;20594;-81
2022/01/10 13:48:09;;;;;;;13.27;7.93;;;;;;;;;;5058351;28;20218;-81
2022/01/10 13:50:36;;;;;;;14.20;7.50;;;;;;;;;;5060139;28;20567;-81
2022/01/10 13:53:05;;;;;;;20.73;8.67;;;;;;;;;;5060288;28;20279;-81
2022/01/10 13:55:32;;;;;;;9.60;6.63;;;;;;;;;;5057076;28;20774;-80
2022/01/10 13:57:59;;;;;;;11.53;6.37;;;;;;;;;;5046855;28;20238;-81
2022/01/10 14:00:28;;;;;;;12.80;7.57;;;;;;;;;;5061282;28;20212;-81
2022/01/10 14:02:56;;;;;;;12.80;7.33;;;;;;;;;;5046128;28;20735;-81
2022/01/10 14:05:26;;;;;;;14.27;7.33;;;;;;;;;;5040088;28;20238;-81
2022/01/10 14:07:54;;;;;;;14.30;6.67;;;;;;;;;;5055218;28;20691;-81
2022/01/10 14:10:22;;;;;;;18.30;7.60;;;;;;;;;;5060725;28;20201;-81
2022/01/10 14:12:49;;;;;;;13.20;7.90;;;;;;;;;;5058317;28;20237;-81
2022/01/10 14:15:22;;;;;;;18.53;7.20;;;;;;;;;;5057808;28;20748;-81
2022/01/10 14:17:49;;;;;;;14.50;7.80;;;;;;;;;;5058249;28;20253;-81
2022/01/10 14:20:18;;;;;;;16.83;7.30;;;;;;;;;;5058687;28;20813;-81
2022/01/10 14:22:47;;;;;;;15.97;8.73;;;;;;;;;;5058623;28;20244;-81
2022/01/10 14:25:17;;;;;;;12.73;7.83;;;;;;;;;;5058928;28;20218;-81
2022/01/10 14:27:45;;;;;;;14.80;8.20;;;;;;;;;;5056806;28;20710;-82
2022/01/10 14:30:12;;;;;;;16.40;8.00;;;;;;;;;;5059061;28;20238;-81
2022/01/10 14:32:39;;;;;;;14.33;7.80;;;;;;;;;;5062025;28;20577;-81
2022/01/10 14:35:07;;;;;;;17.37;7.97;;;;;;;;;;5056663;28;20217;-81
2022/01/10 14:37:35;;;;;;;14.20;7.27;;;;;;;;;;5057077;28;20261;-81